Terminal Aerodrome Forecast
Issued by NWS Albany, NY

Home | Current Version | Previous Version | Text Only | Print | Product List | Glossary On
Versions: 1 2 3 4 5 6 7 8 9 10 11 12 13 14 15 16 17 18 19 20 21
000
FTUS41 KALY 032331
TAFGFL
TAF
KGFL 032331Z 0400/0424 18007KT 3SM -SN SCT008 OVC020
      TEMPO 0400/0403 1SM -SN BR VV008
     FM040300 20007KT 2SM -SNPL BR OVC008
     FM040400 18010G16KT 3SM -FZRAPL BR OVC015
      TEMPO 0404/0406 2SM -FZRAPL BR OVC008
     FM040600 21010KT 3SM BR VCSH OVC015
     FM041100 25008G14KT P6SM OVC040
     FM041500 25008G14KT P6SM BKN080=

USA.gov is the U.S. government's official web portal to all federal, state and local government web resources and services.